Angelesalvarino — EASE — position and weather

sailwx.info

Track history (hours):
 
Tides and Currents Weather Stations Pressure Air Temp Water Temp Dewpoint Dewpoint Depression Visibility Wind Speed Wind Dir Waves Ship Positions

Angelesalvarino

Last reported at 2017-Oct-17 19:30 UTC. Time now 2017-Oct-19 07:02 UTC.
Position N 29°20' W 010°35'.

Length 46 m; draft 5.6 m.

MMSI: 225431000.

Date/timePositionNaut miles runAvg speedWind from/ knotsBaromVisibWave heightAir tempDewpointWater temp
2017-Oct-17 19:30N 29°20' W 010°35'1 2.3
2017-Oct-17 19:00N 29°22' W 010°35'610.7
2017-Oct-17 18:29N 29°27' W 010°37'610.9
2017-Oct-17 17:54N 29°33' W 010°40'410.7
2017-Oct-17 17:29N 29°37' W 010°41'610.7
2017-Oct-17 16:58N 29°42' W 010°43'510.8
2017-Oct-17 16:30N 29°47' W 010°44'510.9
2017-Oct-17 16:00N 29°52' W 010°46'510.8
2017-Oct-17 15:30N 29°58' W 010°46'510.9
2017-Oct-17 15:00N 30°03' W 010°45'510.2
2017-Oct-17 14:30N 30°08' W 010°44'3410.0
2017-Oct-17 11:07N 30°39' W 010°28'2 9.3
2017-Oct-17 10:53N 30°41' W 010°26'3 9.2
2017-Oct-17 10:30N 30°44' W 010°24'23 4.3
2017-Oct-17 05:13N 31°06' W 010°19'0 0.4
2017-Oct-17 05:00N 31°06' W 010°19'2 4.6
2017-Oct-17 04:30N 31°06' W 010°22'4 7.9
2017-Oct-17 04:00N 31°06' W 010°26'25 4.0
2017-Oct-16 21:37N 31°06' W 010°56'3 9.8
2017-Oct-16 21:17N 31°06' W 010°60'2 1.4
2017-Oct-16 19:43N 31°06' W 011°02'2 9.9
2017-Oct-16 19:30N 31°06' W 011°05'5 9.9
2017-Oct-16 19:00N 31°06' W 011°10'510.5
2017-Oct-16 18:30N 31°06' W 011°17'1 1.9
2017-Oct-16 18:00N 31°06' W 011°18'0 0.0
2017-Oct-16 17:30N 31°06' W 011°18'0 0.0
2017-Oct-16 17:00N 31°06' W 011°18'27 5.2
2017-Oct-16 11:44N 31°06' W 011°50'2 6.6
2017-Oct-16 11:28N 31°06' W 011°52'0 0.6
2017-Oct-16 11:00N 31°06' W 011°52'0 0.0
2017-Oct-16 10:30N 31°06' W 011°52'1 0.8
2017-Oct-16 09:21N 31°06' W 011°53'4 9.8
2017-Oct-16 09:00N 31°06' W 011°57'5 9.5
2017-Oct-16 08:30N 31°06' W 012°02'5 9.6
2017-Oct-16 08:00N 31°06' W 012°08'2 1.7
2017-Oct-16 06:49N 31°06' W 012°10'0 0.0
2017-Oct-16 06:30N 31°06' W 012°10'0 0.0
2017-Oct-16 05:54N 31°06' W 012°10'4 9.3
2017-Oct-16 05:28N 31°06' W 012°15'510.0
2017-Oct-16 04:56N 31°06' W 012°21'410.0
2017-Oct-16 04:30N 31°06' W 012°26'55 4.3
2017-Oct-15 15:28N 30°57' W 013°30'3 2.2
2017-Oct-15 13:54N 30°54' W 013°30'0 0.0
2017-Oct-15 13:26N 30°54' W 013°30'3 7.2
2017-Oct-15 13:00N 30°51' W 013°30'11 7.1
2017-Oct-15 11:29N 30°40' W 013°30'0 0.0
2017-Oct-15 10:54N 30°40' W 013°30'0 0.0
2017-Oct-15 10:29N 30°40' W 013°30'0 0.0
2017-Oct-15 10:00N 30°40' W 013°30'6 8.2
2017-Oct-15 09:16N 30°34' W 013°32'310.4
2017-Oct-15 09:00N 30°31' W 013°33'5 9.9
2017-Oct-15 08:30N 30°27' W 013°34'0 0.1
2017-Oct-15 07:47N 30°27' W 013°34'0 0.0
2017-Oct-15 07:30N 30°27' W 013°34'0 0.0
2017-Oct-15 07:00N 30°27' W 013°34'0 0.0
2017-Oct-15 06:30N 30°27' W 013°34'0 0.0
2017-Oct-15 06:00N 30°27' W 013°34'0 0.0
2017-Oct-15 05:30N 30°27' W 013°34'0 0.0
2017-Oct-15 05:00N 30°27' W 013°34'0 0.0
2017-Oct-15 04:30N 30°27' W 013°34'0 0.0
2017-Oct-15 02:51N 30°27' W 013°34'0 0.0
2017-Oct-15 02:28N 30°27' W 013°34'2 0.3
2017-Oct-14 20:58N 30°25' W 013°32'5 9.2
2017-Oct-14 20:29N 30°21' W 013°30'5 9.9
2017-Oct-14 20:00N 30°17' W 013°30'4 8.7
2017-Oct-14 19:29N 30°12' W 013°30'0 0.0
2017-Oct-14 19:00N 30°12' W 013°30'4 2.8
2017-Oct-14 17:29N 30°08' W 013°30'45 3.6
2017-Oct-14 05:05N 29°23' W 013°24'1010.0
2017-Oct-14 04:05N 29°15' W 013°17'210.1
2017-Oct-14 03:56N 29°14' W 013°16'410.1
2017-Oct-14 03:30N 29°10' W 013°14'5 9.6
2017-Oct-14 03:00N 29°05' W 013°12'510.0
2017-Oct-14 02:30N 29°01' W 013°10'510.1
2017-Oct-14 01:59N 28°56' W 013°08'5 9.8
2017-Oct-14 01:30N 28°52' W 013°06'5 9.8
2017-Oct-14 01:00N 28°47' W 013°04'5 9.9
2017-Oct-14 00:30N 28°42' W 013°02'3 6.2
2017-Oct-14 00:00N 28°40' W 013°00'0 0.5
2017-Oct-13 23:30N 28°39' W 013°00'5 9.7
2017-Oct-13 23:00N 28°38' W 012°55'13 2.7
2017-Oct-13 18:11N 28°34' W 012°41'210.4
2017-Oct-13 18:00N 28°35' W 012°43'1 2.4
2017-Oct-13 17:30N 28°35' W 012°44'5 8.2
2017-Oct-13 16:52N 28°37' W 012°50'3 6.7
2017-Oct-13 16:30N 28°38' W 012°53'2 4.2
2017-Oct-13 16:00N 28°38' W 012°55'510.3
2017-Oct-13 15:30N 28°40' W 013°00'0 0.0
2017-Oct-13 15:00N 28°40' W 013°00'4 7.4
2017-Oct-13 14:30N 28°40' W 013°05'510.5
2017-Oct-13 14:00N 28°42' W 013°10'2 3.8
2017-Oct-13 13:30N 28°43' W 013°12'0 0.0
2017-Oct-13 13:00N 28°43' W 013°12'2 3.5
2017-Oct-13 12:30N 28°43' W 013°14'510.1
2017-Oct-13 12:00N 28°44' W 013°20'5 9.9
2017-Oct-13 11:30N 28°45' W 013°25'5 9.9
2017-Oct-13 11:00N 28°46' W 013°31'5 9.9
2017-Oct-13 10:30N 28°47' W 013°36'510.1
2017-Oct-13 09:59N 28°48' W 013°42'0 0.2
2017-Oct-13 09:30N 28°48' W 013°42'2 4.1
2017-Oct-13 09:00N 28°48' W 013°40'510.2
2017-Oct-13 08:30N 28°46' W 013°34'510.1
2017-Oct-13 08:00N 28°45' W 013°29'510.0
2017-Oct-13 07:30N 28°45' W 013°23'1 2.6
2017-Oct-13 07:00N 28°44' W 013°22'0 0.0
2017-Oct-13 06:30N 28°44' W 013°22'3 7.0
2017-Oct-13 06:00N 28°45' W 013°26'2 4.4
2017-Oct-13 05:30N 28°46' W 013°28'0 0.0
2017-Oct-13 05:00N 28°46' W 013°28'0 0.2
2017-Oct-13 04:30N 28°46' W 013°28'510.1
2017-Oct-13 04:00N 28°47' W 013°34'510.3
2017-Oct-13 03:30N 28°48' W 013°40'2 4.7
2017-Oct-13 03:00N 28°48' W 013°42'3 6.6
2017-Oct-13 02:30N 28°48' W 013°46'510.0
2017-Oct-13 02:00N 28°49' W 013°52'510.1
2017-Oct-13 01:30N 28°50' W 013°57'510.2
2017-Oct-13 01:00N 28°52' W 014°03'3 5.8
2017-Oct-13 00:30N 28°53' W 014°06'0 0.0
2017-Oct-13 00:00N 28°53' W 014°06'0 0.0
2017-Oct-12 23:30N 28°53' W 014°06'0 0.1
2017-Oct-12 23:00N 28°52' W 014°06'4 7.1
2017-Oct-12 22:30N 28°53' W 014°10'510.0
2017-Oct-12 22:00N 28°55' W 014°16'510.0
2017-Oct-12 21:30N 28°56' W 014°21'1 2.6
2017-Oct-12 21:00N 28°56' W 014°23'0 0.0
2017-Oct-12 20:30N 28°56' W 014°23'0 0.0
2017-Oct-12 20:00N 28°56' W 014°23'0 0.0
2017-Oct-12 19:30N 28°56' W 014°23'3 6.9
2017-Oct-12 19:00N 28°57' W 014°26'510.3
2017-Oct-12 18:30N 28°59' W 014°32'510.2
2017-Oct-12 18:00N 28°60' W 014°38'510.3
2017-Oct-12 17:30N 29°01' W 014°43'0 0.8
2017-Oct-12 17:00N 29°01' W 014°44'0 0.0
2017-Oct-12 16:30N 29°01' W 014°44'0 0.0
2017-Oct-12 16:00N 29°01' W 014°44'0 0.0
2017-Oct-12 15:30N 29°01' W 014°44'0 0.0
2017-Oct-12 15:00N 29°01' W 014°44'0 0.3
2017-Oct-12 14:30N 29°01' W 014°44'510.1
2017-Oct-12 14:00N 29°02' W 014°50'510.5
2017-Oct-12 13:30N 29°03' W 014°55'5 9.9
2017-Oct-12 13:00N 29°04' W 015°01'5 9.8
2017-Oct-12 12:30N 29°06' W 015°06'0 0.4
2017-Oct-12 12:00N 29°06' W 015°07'0 0.0
2017-Oct-12 11:30N 29°06' W 015°07'0 0.0
2017-Oct-12 11:00N 29°06' W 015°07'0 0.0
2017-Oct-12 10:30N 29°06' W 015°07'0 0.7
2017-Oct-12 10:00N 29°06' W 015°07'510.0
2017-Oct-12 09:30N 29°07' W 015°13'5 9.9
2017-Oct-12 09:00N 29°08' W 015°18'5 9.7
2017-Oct-12 08:30N 29°09' W 015°24'5 9.7
2017-Oct-12 08:00N 29°10' W 015°29'1 1.7
2017-Oct-12 07:30N 29°10' W 015°30'0 0.0
2017-Oct-12 07:00N 29°10' W 015°30'0 0.0
2017-Oct-12 06:30N 29°10' W 015°30'0 0.0
2017-Oct-12 06:00N 29°10' W 015°30'0 0.0
2017-Oct-12 05:30N 29°10' W 015°30'2 3.4
2017-Oct-12 05:00N 29°10' W 015°32'5 9.8
2017-Oct-12 04:30N 29°10' W 015°38'5 9.9
2017-Oct-12 04:00N 29°10' W 015°43'6 9.8
2017-Oct-12 03:25N 29°10' W 015°50'0 0.5
2017-Oct-12 02:57N 29°10' W 015°50'0 0.0
2017-Oct-12 02:30N 29°10' W 015°50'0 0.0
2017-Oct-12 01:57N 29°10' W 015°50'0 0.0
2017-Oct-12 01:30N 29°10' W 015°50'10 6.8
2017-Oct-11 23:59N 29°10' W 016°02'510.0
2017-Oct-11 23:28N 29°10' W 016°08'3 5.0
2017-Oct-11 22:47N 29°10' W 016°12'0 0.0
2017-Oct-11 22:30N 29°10' W 016°12'0 0.0
2017-Oct-11 21:37N 29°10' W 016°12'0 0.0
2017-Oct-11 21:29N 29°10' W 016°12'0 0.0
2017-Oct-11 20:57N 29°10' W 016°12'0 0.0
2017-Oct-11 20:30N 29°10' W 016°12'4 7.0
2017-Oct-11 19:57N 29°10' W 016°16'611.0
2017-Oct-11 19:23N 29°10' W 016°24'410.9
2017-Oct-11 19:00N 29°10' W 016°28'5 8.7
2017-Oct-11 18:25N 29°10' W 016°34'0 0.0
2017-Oct-11 18:00N 29°10' W 016°34'0 0.0
2017-Oct-11 17:29N 29°10' W 016°34'0 0.0
2017-Oct-11 16:40N 29°10' W 016°34'25 0.7
2017-Oct-10 03:24N 28°46' W 016°43'1010.3
2017-Oct-10 02:24N 28°44' W 016°32'1210.2
2017-Oct-10 01:14N 28°41' W 016°19'2 9.9
2017-Oct-10 01:00N 28°40' W 016°16'510.1
2017-Oct-10 00:30N 28°39' W 016°11'5 9.6
2017-Oct-09 23:55N 28°36' W 016°05'4 9.6
2017-Oct-09 23:30N 28°32' W 016°06'5 9.3
2017-Oct-09 23:00N 28°29' W 016°10'4 8.6
2017-Oct-09 22:30N 28°27' W 016°15'1 1.1
2017-Oct-09 22:00N 28°28' W 016°15'0 0.0
2017-Oct-09 21:29N 28°28' W 016°15'0 0.0
2017-Oct-09 20:53N 28°28' W 016°15'0 0.0
2017-Oct-09 20:22N 28°28' W 016°15'0 0.0
2017-Oct-09 19:59N 28°28' W 016°15'0 0.0
2017-Oct-09 19:30N 28°28' W 016°15'0 0.0
2017-Oct-09 18:52N 28°28' W 016°15'0 0.0
2017-Oct-09 18:29N 28°28' W 016°15'0 0.0
2017-Oct-09 18:00N 28°28' W 016°15'0 0.0
2017-Oct-09 17:26N 28°28' W 016°15'0 0.0
2017-Oct-09 15:52N 28°28' W 016°15'0 0.0
2017-Oct-09 15:11N 28°28' W 016°15'0 0.0
2017-Oct-09 14:10N 28°28' W 016°15'0 0.0
2017-Oct-09 13:57N 28°28' W 016°15'0 0.0
2017-Oct-09 13:30N 28°28' W 016°15'0 0.0
2017-Oct-09 12:02N 28°28' W 016°15'0 0.0
2017-Oct-09 11:59N 28°28' W 016°15'0 0.0
2017-Oct-09 11:29N 28°28' W 016°15'0 0.0
2017-Oct-09 11:00N 28°28' W 016°15'0 0.0
2017-Oct-09 10:25N 28°28' W 016°15'0 0.0
2017-Oct-09 09:57N 28°28' W 016°15'0 0.0
2017-Oct-09 09:30N 28°28' W 016°15'0 0.0
2017-Oct-09 08:53N 28°28' W 016°15'0 0.0
2017-Oct-09 08:30N 28°28' W 016°15'0 0.0
2017-Oct-09 07:59N 28°28' W 016°15'0 0.0
2017-Oct-09 07:29N 28°28' W 016°15'0 0.0
2017-Oct-09 07:00N 28°28' W 016°15'0 0.0
2017-Oct-09 06:30N 28°28' W 016°15'0 0.0
2017-Oct-09 06:00N 28°28' W 016°15'0 0.0
2017-Oct-09 05:30N 28°28' W 016°15'0 0.0
2017-Oct-09 04:56N 28°28' W 016°15'0 0.0
2017-Oct-09 04:30N 28°28' W 016°15'0 0.0
2017-Oct-09 03:59N 28°28' W 016°15'0 0.0
2017-Oct-09 03:30N 28°28' W 016°15'0 0.0
2017-Oct-09 02:58N 28°28' W 016°15'0 0.0
2017-Oct-09 02:30N 28°28' W 016°15'0 0.0
2017-Oct-09 01:54N 28°28' W 016°15'0 0.0
2017-Oct-09 01:26N 28°28' W 016°15'0 0.0
2017-Oct-09 01:00N 28°28' W 016°15'0 0.0
2017-Oct-09 00:30N 28°28' W 016°15'0 0.0
2017-Oct-08 23:54N 28°28' W 016°15'0 0.0
2017-Oct-08 23:19N 28°28' W 016°15'0 0.0
2017-Oct-08 22:57N 28°28' W 016°15'0 0.0
2017-Oct-08 22:30N 28°28' W 016°15'0 0.0
2017-Oct-08 22:00N 28°28' W 016°15'0 0.0
2017-Oct-08 21:30N 28°28' W 016°15'0 0.0
2017-Oct-08 20:59N 28°28' W 016°15'0 0.0
2017-Oct-08 20:30N 28°28' W 016°15'0 0.0
2017-Oct-08 20:00N 28°28' W 016°15'0 0.0
2017-Oct-08 19:29N 28°28' W 016°15'0 0.0
2017-Oct-08 18:59N 28°28' W 016°15'0 0.0
2017-Oct-08 18:30N 28°28' W 016°15'0 0.0
2017-Oct-08 18:00N 28°28' W 016°15'0 0.0
2017-Oct-08 17:27N 28°28' W 016°15'0 0.0
2017-Oct-08 17:00N 28°28' W 016°15'0 0.0
2017-Oct-08 16:29N 28°28' W 016°15'0 0.0
2017-Oct-08 15:59N 28°28' W 016°15'0 0.0
2017-Oct-08 15:29N 28°28' W 016°15'0 0.0
2017-Oct-08 15:00N 28°28' W 016°15'0 0.0
2017-Oct-08 14:30N 28°28' W 016°15'0 0.0
2017-Oct-08 13:59N 28°28' W 016°15'0 0.0
2017-Oct-08 13:29N 28°28' W 016°15'0 0.0
2017-Oct-08 12:59N 28°28' W 016°15'0 0.0
2017-Oct-08 12:30N 28°28' W 016°15'0 0.0
2017-Oct-08 12:00N 28°28' W 016°15'0 0.0
2017-Oct-08 11:26N 28°28' W 016°15'0 0.0
2017-Oct-08 11:00N 28°28' W 016°15'0 0.0
2017-Oct-08 10:30N 28°28' W 016°15'0 0.0
2017-Oct-08 09:59N 28°28' W 016°15'0 0.0
2017-Oct-08 09:27N 28°28' W 016°15'0 0.0
2017-Oct-08 09:00N 28°28' W 016°15'0 0.0
2017-Oct-08 08:30N 28°28' W 016°15'0 0.0
2017-Oct-08 08:00N 28°28' W 016°15'0 0.0
2017-Oct-08 07:30N 28°28' W 016°15'1 2.2
2017-Oct-08 06:58N 28°27' W 016°15'18 5.1
2017-Oct-08 03:25N 28°10' W 016°24'  
Track history (hours):
 
Tides and Currents Weather Stations Pressure Air Temp Water Temp Dewpoint Dewpoint Depression Visibility Wind Speed Wind Dir Waves Ship Positions

Angelesalvarino

Last reported at 2017-Oct-17 19:30 UTC. Time now 2017-Oct-19 07:02 UTC.
Position N 29°20' W 010°35'.

Length 46 m; draft 5.6 m.

MMSI: 225431000.

Date/timePositionNaut miles runAvg speedWind from/ knotsBaromVisibWave heightAir tempDewpointWater temp
2017-Oct-17 19:30N 29°20' W 010°35'1 2.3
2017-Oct-17 19:00N 29°22' W 010°35'610.7
2017-Oct-17 18:29N 29°27' W 010°37'610.9
2017-Oct-17 17:54N 29°33' W 010°40'410.7
2017-Oct-17 17:29N 29°37' W 010°41'610.7
2017-Oct-17 16:58N 29°42' W 010°43'510.8
2017-Oct-17 16:30N 29°47' W 010°44'510.9
2017-Oct-17 16:00N 29°52' W 010°46'510.8
2017-Oct-17 15:30N 29°58' W 010°46'510.9
2017-Oct-17 15:00N 30°03' W 010°45'510.2
2017-Oct-17 14:30N 30°08' W 010°44'3410.0
2017-Oct-17 11:07N 30°39' W 010°28'2 9.3
2017-Oct-17 10:53N 30°41' W 010°26'3 9.2
2017-Oct-17 10:30N 30°44' W 010°24'23 4.3
2017-Oct-17 05:13N 31°06' W 010°19'0 0.4
2017-Oct-17 05:00N 31°06' W 010°19'2 4.6
2017-Oct-17 04:30N 31°06' W 010°22'4 7.9
2017-Oct-17 04:00N 31°06' W 010°26'25 4.0
2017-Oct-16 21:37N 31°06' W 010°56'3 9.8
2017-Oct-16 21:17N 31°06' W 010°60'2 1.4
2017-Oct-16 19:43N 31°06' W 011°02'2 9.9
2017-Oct-16 19:30N 31°06' W 011°05'5 9.9
2017-Oct-16 19:00N 31°06' W 011°10'510.5
2017-Oct-16 18:30N 31°06' W 011°17'1 1.9
2017-Oct-16 18:00N 31°06' W 011°18'0 0.0
2017-Oct-16 17:30N 31°06' W 011°18'0 0.0
2017-Oct-16 17:00N 31°06' W 011°18'27 5.2
2017-Oct-16 11:44N 31°06' W 011°50'2 6.6
2017-Oct-16 11:28N 31°06' W 011°52'0 0.6
2017-Oct-16 11:00N 31°06' W 011°52'0 0.0
2017-Oct-16 10:30N 31°06' W 011°52'1 0.8
2017-Oct-16 09:21N 31°06' W 011°53'4 9.8
2017-Oct-16 09:00N 31°06' W 011°57'5 9.5
2017-Oct-16 08:30N 31°06' W 012°02'5 9.6
2017-Oct-16 08:00N 31°06' W 012°08'2 1.7
2017-Oct-16 06:49N 31°06' W 012°10'0 0.0
2017-Oct-16 06:30N 31°06' W 012°10'0 0.0
2017-Oct-16 05:54N 31°06' W 012°10'4 9.3
2017-Oct-16 05:28N 31°06' W 012°15'510.0
2017-Oct-16 04:56N 31°06' W 012°21'410.0
2017-Oct-16 04:30N 31°06' W 012°26'55 4.3
2017-Oct-15 15:28N 30°57' W 013°30'3 2.2
2017-Oct-15 13:54N 30°54' W 013°30'0 0.0
2017-Oct-15 13:26N 30°54' W 013°30'3 7.2
2017-Oct-15 13:00N 30°51' W 013°30'11 7.1
2017-Oct-15 11:29N 30°40' W 013°30'0 0.0
2017-Oct-15 10:54N 30°40' W 013°30'0 0.0
2017-Oct-15 10:29N 30°40' W 013°30'0 0.0
2017-Oct-15 10:00N 30°40' W 013°30'6 8.2
2017-Oct-15 09:16N 30°34' W 013°32'310.4
2017-Oct-15 09:00N 30°31' W 013°33'5 9.9
2017-Oct-15 08:30N 30°27' W 013°34'0 0.1
2017-Oct-15 07:47N 30°27' W 013°34'0 0.0
2017-Oct-15 07:30N 30°27' W 013°34'0 0.0
2017-Oct-15 07:00N 30°27' W 013°34'0 0.0
2017-Oct-15 06:30N 30°27' W 013°34'0 0.0
2017-Oct-15 06:00N 30°27' W 013°34'0 0.0
2017-Oct-15 05:30N 30°27' W 013°34'0 0.0
2017-Oct-15 05:00N 30°27' W 013°34'0 0.0
2017-Oct-15 04:30N 30°27' W 013°34'0 0.0
2017-Oct-15 02:51N 30°27' W 013°34'0 0.0
2017-Oct-15 02:28N 30°27' W 013°34'2 0.3
2017-Oct-14 20:58N 30°25' W 013°32'5 9.2
2017-Oct-14 20:29N 30°21' W 013°30'5 9.9
2017-Oct-14 20:00N 30°17' W 013°30'4 8.7
2017-Oct-14 19:29N 30°12' W 013°30'0 0.0
2017-Oct-14 19:00N 30°12' W 013°30'4 2.8
2017-Oct-14 17:29N 30°08' W 013°30'45 3.6
2017-Oct-14 05:05N 29°23' W 013°24'1010.0
2017-Oct-14 04:05N 29°15' W 013°17'210.1
2017-Oct-14 03:56N 29°14' W 013°16'410.1
2017-Oct-14 03:30N 29°10' W 013°14'5 9.6
2017-Oct-14 03:00N 29°05' W 013°12'510.0
2017-Oct-14 02:30N 29°01' W 013°10'510.1
2017-Oct-14 01:59N 28°56' W 013°08'5 9.8
2017-Oct-14 01:30N 28°52' W 013°06'5 9.8
2017-Oct-14 01:00N 28°47' W 013°04'5 9.9
2017-Oct-14 00:30N 28°42' W 013°02'3 6.2
2017-Oct-14 00:00N 28°40' W 013°00'0 0.5
2017-Oct-13 23:30N 28°39' W 013°00'5 9.7
2017-Oct-13 23:00N 28°38' W 012°55'13 2.7
2017-Oct-13 18:11N 28°34' W 012°41'210.4
2017-Oct-13 18:00N 28°35' W 012°43'1 2.4
2017-Oct-13 17:30N 28°35' W 012°44'5 8.2
2017-Oct-13 16:52N 28°37' W 012°50'3 6.7
2017-Oct-13 16:30N 28°38' W 012°53'2 4.2
2017-Oct-13 16:00N 28°38' W 012°55'510.3
2017-Oct-13 15:30N 28°40' W 013°00'0 0.0
2017-Oct-13 15:00N 28°40' W 013°00'4 7.4
2017-Oct-13 14:30N 28°40' W 013°05'510.5
2017-Oct-13 14:00N 28°42' W 013°10'2 3.8
2017-Oct-13 13:30N 28°43' W 013°12'0 0.0
2017-Oct-13 13:00N 28°43' W 013°12'2 3.5
2017-Oct-13 12:30N 28°43' W 013°14'510.1
2017-Oct-13 12:00N 28°44' W 013°20'5 9.9
2017-Oct-13 11:30N 28°45' W 013°25'5 9.9
2017-Oct-13 11:00N 28°46' W 013°31'5 9.9
2017-Oct-13 10:30N 28°47' W 013°36'510.1
2017-Oct-13 09:59N 28°48' W 013°42'0 0.2
2017-Oct-13 09:30N 28°48' W 013°42'2 4.1
2017-Oct-13 09:00N 28°48' W 013°40'510.2
2017-Oct-13 08:30N 28°46' W 013°34'510.1
2017-Oct-13 08:00N 28°45' W 013°29'510.0
2017-Oct-13 07:30N 28°45' W 013°23'1 2.6
2017-Oct-13 07:00N 28°44' W 013°22'0 0.0
2017-Oct-13 06:30N 28°44' W 013°22'3 7.0
2017-Oct-13 06:00N 28°45' W 013°26'2 4.4
2017-Oct-13 05:30N 28°46' W 013°28'0 0.0
2017-Oct-13 05:00N 28°46' W 013°28'0 0.2
2017-Oct-13 04:30N 28°46' W 013°28'510.1
2017-Oct-13 04:00N 28°47' W 013°34'510.3
2017-Oct-13 03:30N 28°48' W 013°40'2 4.7
2017-Oct-13 03:00N 28°48' W 013°42'3 6.6
2017-Oct-13 02:30N 28°48' W 013°46'510.0
2017-Oct-13 02:00N 28°49' W 013°52'510.1
2017-Oct-13 01:30N 28°50' W 013°57'510.2
2017-Oct-13 01:00N 28°52' W 014°03'3 5.8
2017-Oct-13 00:30N 28°53' W 014°06'0 0.0
2017-Oct-13 00:00N 28°53' W 014°06'0 0.0
2017-Oct-12 23:30N 28°53' W 014°06'0 0.1
2017-Oct-12 23:00N 28°52' W 014°06'4 7.1
2017-Oct-12 22:30N 28°53' W 014°10'510.0
2017-Oct-12 22:00N 28°55' W 014°16'510.0
2017-Oct-12 21:30N 28°56' W 014°21'1 2.6
2017-Oct-12 21:00N 28°56' W 014°23'0 0.0
2017-Oct-12 20:30N 28°56' W 014°23'0 0.0
2017-Oct-12 20:00N 28°56' W 014°23'0 0.0
2017-Oct-12 19:30N 28°56' W 014°23'3 6.9
2017-Oct-12 19:00N 28°57' W 014°26'510.3
2017-Oct-12 18:30N 28°59' W 014°32'510.2
2017-Oct-12 18:00N 28°60' W 014°38'510.3
2017-Oct-12 17:30N 29°01' W 014°43'0 0.8
2017-Oct-12 17:00N 29°01' W 014°44'0 0.0
2017-Oct-12 16:30N 29°01' W 014°44'0 0.0
2017-Oct-12 16:00N 29°01' W 014°44'0 0.0
2017-Oct-12 15:30N 29°01' W 014°44'0 0.0
2017-Oct-12 15:00N 29°01' W 014°44'0 0.3
2017-Oct-12 14:30N 29°01' W 014°44'510.1
2017-Oct-12 14:00N 29°02' W 014°50'510.5
2017-Oct-12 13:30N 29°03' W 014°55'5 9.9
2017-Oct-12 13:00N 29°04' W 015°01'5 9.8
2017-Oct-12 12:30N 29°06' W 015°06'0 0.4
2017-Oct-12 12:00N 29°06' W 015°07'0 0.0
2017-Oct-12 11:30N 29°06' W 015°07'0 0.0
2017-Oct-12 11:00N 29°06' W 015°07'0 0.0
2017-Oct-12 10:30N 29°06' W 015°07'0 0.7
2017-Oct-12 10:00N 29°06' W 015°07'510.0
2017-Oct-12 09:30N 29°07' W 015°13'5 9.9
2017-Oct-12 09:00N 29°08' W 015°18'5 9.7
2017-Oct-12 08:30N 29°09' W 015°24'5 9.7
2017-Oct-12 08:00N 29°10' W 015°29'1 1.7
2017-Oct-12 07:30N 29°10' W 015°30'0 0.0
2017-Oct-12 07:00N 29°10' W 015°30'0 0.0
2017-Oct-12 06:30N 29°10' W 015°30'0 0.0
2017-Oct-12 06:00N 29°10' W 015°30'0 0.0
2017-Oct-12 05:30N 29°10' W 015°30'2 3.4
2017-Oct-12 05:00N 29°10' W 015°32'5 9.8
2017-Oct-12 04:30N 29°10' W 015°38'5 9.9
2017-Oct-12 04:00N 29°10' W 015°43'6 9.8
2017-Oct-12 03:25N 29°10' W 015°50'0 0.5
2017-Oct-12 02:57N 29°10' W 015°50'0 0.0
2017-Oct-12 02:30N 29°10' W 015°50'0 0.0
2017-Oct-12 01:57N 29°10' W 015°50'0 0.0
2017-Oct-12 01:30N 29°10' W 015°50'10 6.8
2017-Oct-11 23:59N 29°10' W 016°02'510.0
2017-Oct-11 23:28N 29°10' W 016°08'3 5.0
2017-Oct-11 22:47N 29°10' W 016°12'0 0.0
2017-Oct-11 22:30N 29°10' W 016°12'0 0.0
2017-Oct-11 21:37N 29°10' W 016°12'0 0.0
2017-Oct-11 21:29N 29°10' W 016°12'0 0.0
2017-Oct-11 20:57N 29°10' W 016°12'0 0.0
2017-Oct-11 20:30N 29°10' W 016°12'4 7.0
2017-Oct-11 19:57N 29°10' W 016°16'611.0
2017-Oct-11 19:23N 29°10' W 016°24'410.9
2017-Oct-11 19:00N 29°10' W 016°28'5 8.7
2017-Oct-11 18:25N 29°10' W 016°34'0 0.0
2017-Oct-11 18:00N 29°10' W 016°34'0 0.0
2017-Oct-11 17:29N 29°10' W 016°34'0 0.0
2017-Oct-11 16:40N 29°10' W 016°34'25 0.7
2017-Oct-10 03:24N 28°46' W 016°43'1010.3
2017-Oct-10 02:24N 28°44' W 016°32'1210.2
2017-Oct-10 01:14N 28°41' W 016°19'2 9.9
2017-Oct-10 01:00N 28°40' W 016°16'510.1
2017-Oct-10 00:30N 28°39' W 016°11'5 9.6
2017-Oct-09 23:55N 28°36' W 016°05'4 9.6
2017-Oct-09 23:30N 28°32' W 016°06'5 9.3
2017-Oct-09 23:00N 28°29' W 016°10'4 8.6
2017-Oct-09 22:30N 28°27' W 016°15'1 1.1
2017-Oct-09 22:00N 28°28' W 016°15'0 0.0
2017-Oct-09 21:29N 28°28' W 016°15'0 0.0
2017-Oct-09 20:53N 28°28' W 016°15'0 0.0
2017-Oct-09 20:22N 28°28' W 016°15'0 0.0
2017-Oct-09 19:59N 28°28' W 016°15'0 0.0
2017-Oct-09 19:30N 28°28' W 016°15'0 0.0
2017-Oct-09 18:52N 28°28' W 016°15'0 0.0
2017-Oct-09 18:29N 28°28' W 016°15'0 0.0
2017-Oct-09 18:00N 28°28' W 016°15'0 0.0
2017-Oct-09 17:26N 28°28' W 016°15'0 0.0
2017-Oct-09 15:52N 28°28' W 016°15'0 0.0
2017-Oct-09 15:11N 28°28' W 016°15'0 0.0
2017-Oct-09 14:10N 28°28' W 016°15'0 0.0
2017-Oct-09 13:57N 28°28' W 016°15'0 0.0
2017-Oct-09 13:30N 28°28' W 016°15'0 0.0
2017-Oct-09 12:02N 28°28' W 016°15'0 0.0
2017-Oct-09 11:59N 28°28' W 016°15'0 0.0
2017-Oct-09 11:29N 28°28' W 016°15'0 0.0
2017-Oct-09 11:00N 28°28' W 016°15'0 0.0
2017-Oct-09 10:25N 28°28' W 016°15'0 0.0
2017-Oct-09 09:57N 28°28' W 016°15'0 0.0
2017-Oct-09 09:30N 28°28' W 016°15'0 0.0
2017-Oct-09 08:53N 28°28' W 016°15'0 0.0
2017-Oct-09 08:30N 28°28' W 016°15'0 0.0
2017-Oct-09 07:59N 28°28' W 016°15'0 0.0
2017-Oct-09 07:29N 28°28' W 016°15'0 0.0
2017-Oct-09 07:00N 28°28' W 016°15'0 0.0
2017-Oct-09 06:30N 28°28' W 016°15'0 0.0
2017-Oct-09 06:00N 28°28' W 016°15'0 0.0
2017-Oct-09 05:30N 28°28' W 016°15'0 0.0
2017-Oct-09 04:56N 28°28' W 016°15'0 0.0
2017-Oct-09 04:30N 28°28' W 016°15'0 0.0
2017-Oct-09 03:59N 28°28' W 016°15'0 0.0
2017-Oct-09 03:30N 28°28' W 016°15'0 0.0
2017-Oct-09 02:58N 28°28' W 016°15'0 0.0
2017-Oct-09 02:30N 28°28' W 016°15'0 0.0
2017-Oct-09 01:54N 28°28' W 016°15'0 0.0
2017-Oct-09 01:26N 28°28' W 016°15'0 0.0
2017-Oct-09 01:00N 28°28' W 016°15'0 0.0
2017-Oct-09 00:30N 28°28' W 016°15'0 0.0
2017-Oct-08 23:54N 28°28' W 016°15'0 0.0
2017-Oct-08 23:19N 28°28' W 016°15'0 0.0
2017-Oct-08 22:57N 28°28' W 016°15'0 0.0
2017-Oct-08 22:30N 28°28' W 016°15'0 0.0
2017-Oct-08 22:00N 28°28' W 016°15'0 0.0
2017-Oct-08 21:30N 28°28' W 016°15'0 0.0
2017-Oct-08 20:59N 28°28' W 016°15'0 0.0
2017-Oct-08 20:30N 28°28' W 016°15'0 0.0
2017-Oct-08 20:00N 28°28' W 016°15'0 0.0
2017-Oct-08 19:29N 28°28' W 016°15'0 0.0
2017-Oct-08 18:59N 28°28' W 016°15'0 0.0
2017-Oct-08 18:30N 28°28' W 016°15'0 0.0
2017-Oct-08 18:00N 28°28' W 016°15'0 0.0
2017-Oct-08 17:27N 28°28' W 016°15'0 0.0
2017-Oct-08 17:00N 28°28' W 016°15'0 0.0
2017-Oct-08 16:29N 28°28' W 016°15'0 0.0
2017-Oct-08 15:59N 28°28' W 016°15'0 0.0
2017-Oct-08 15:29N 28°28' W 016°15'0 0.0
2017-Oct-08 15:00N 28°28' W 016°15'0 0.0
2017-Oct-08 14:30N 28°28' W 016°15'0 0.0
2017-Oct-08 13:59N 28°28' W 016°15'0 0.0
2017-Oct-08 13:29N 28°28' W 016°15'0 0.0
2017-Oct-08 12:59N 28°28' W 016°15'0 0.0
2017-Oct-08 12:30N 28°28' W 016°15'0 0.0
2017-Oct-08 12:00N 28°28' W 016°15'0 0.0
2017-Oct-08 11:26N 28°28' W 016°15'0 0.0
2017-Oct-08 11:00N 28°28' W 016°15'0 0.0
2017-Oct-08 10:30N 28°28' W 016°15'0 0.0
2017-Oct-08 09:59N 28°28' W 016°15'0 0.0
2017-Oct-08 09:27N 28°28' W 016°15'0 0.0
2017-Oct-08 09:00N 28°28' W 016°15'0 0.0
2017-Oct-08 08:30N 28°28' W 016°15'0 0.0
2017-Oct-08 08:00N 28°28' W 016°15'0 0.0
2017-Oct-08 07:30N 28°28' W 016°15'1 2.2
2017-Oct-08 06:58N 28°27' W 016°15'18 5.1
2017-Oct-08 03:25N 28°10' W 016°24'  

Dump ship's entire track history